sensor_id;sensor_type;location;lat;lon;timestamp;temperature;humidity
33739;DHT22;20063;51.730;11.110;2023-08-24T00:00:55;17.90;99.90
33739;DHT22;20063;51.730;11.110;2023-08-24T00:03:22;17.90;99.90
33739;DHT22;20063;51.730;11.110;2023-08-24T00:05:48;17.90;99.90
33739;DHT22;20063;51.730;11.110;2023-08-24T00:08:14;17.80;99.90
33739;DHT22;20063;51.730;11.110;2023-08-24T00:10:48;17.80;99.90
33739;DHT22;20063;51.730;11.110;2023-08-24T00:13:14;17.70;99.90
33739;DHT22;20063;51.730;11.110;2023-08-24T00:15:40;17.70;99.90
33739;DHT22;20063;51.730;11.110;2023-08-24T00:18:06;17.70;99.90
33739;DHT22;20063;51.730;11.110;2023-08-24T00:20:33;17.70;99.90
33739;DHT22;20063;51.730;11.110;2023-08-24T00:22:59;17.70;99.90
33739;DHT22;20063;51.730;11.110;2023-08-24T00:25:25;17.70;99.90
33739;DHT22;20063;51.730;11.110;2023-08-24T00:27:55;17.70;99.90
33739;DHT22;20063;51.730;11.110;2023-08-24T00:30:20;17.70;99.90
33739;DHT22;20063;51.730;11.110;2023-08-24T00:32:46;17.70;99.90
33739;DHT22;20063;51.730;11.110;2023-08-24T00:35:12;17.70;99.90
33739;DHT22;20063;51.730;11.110;2023-08-24T00:37:38;17.70;99.90
33739;DHT22;20063;51.730;11.110;2023-08-24T00:40:05;17.80;99.90
33739;DHT22;20063;51.730;11.110;2023-08-24T00:42:38;17.90;99.90
33739;DHT22;20063;51.730;11.110;2023-08-24T00:45:05;17.90;99.90
33739;DHT22;20063;51.730;11.110;2023-08-24T00:47:31;18.00;99.90
33739;DHT22;20063;51.730;11.110;2023-08-24T00:49:59;18.10;99.90
33739;DHT22;20063;51.730;11.110;2023-08-24T00:52:26;18.10;99.90
33739;DHT22;20063;51.730;11.110;2023-08-24T00:54:54;18.30;99.90
33739;DHT22;20063;51.730;11.110;2023-08-24T00:57:19;18.40;99.90
33739;DHT22;20063;51.730;11.110;2023-08-24T00:59:45;18.50;99.90
33739;DHT22;20063;51.730;11.110;2023-08-24T01:02:12;18.60;99.90
33739;DHT22;20063;51.730;11.110;2023-08-24T01:04:40;18.70;99.90
33739;DHT22;20063;51.730;11.110;2023-08-24T01:07:06;18.70;99.90
33739;DHT22;20063;51.730;11.110;2023-08-24T01:09:32;18.70;99.90
33739;DHT22;20063;51.730;11.110;2023-08-24T01:17:22;18.90;99.90
33739;DHT22;20063;51.730;11.110;2023-08-24T01:19:49;18.90;99.90
33739;DHT22;20063;51.730;11.110;2023-08-24T01:22:32;19.00;99.90
33739;DHT22;20063;51.730;11.110;2023-08-24T01:25:06;19.00;99.90
33739;DHT22;20063;51.730;11.110;2023-08-24T01:27:39;19.00;99.90
33739;DHT22;20063;51.730;11.110;2023-08-24T01:30:06;19.00;99.90
33739;DHT22;20063;51.730;11.110;2023-08-24T01:32:34;19.00;99.90
33739;DHT22;20063;51.730;11.110;2023-08-24T01:35:09;19.00;99.90
33739;DHT22;20063;51.730;11.110;2023-08-24T01:37:35;19.00;99.90
33739;DHT22;20063;51.730;11.110;2023-08-24T01:40:17;19.00;99.90
33739;DHT22;20063;51.730;11.110;2023-08-24T01:42:55;19.00;99.90
33739;DHT22;20063;51.730;11.110;2023-08-24T01:45:24;18.90;99.90
33739;DHT22;20063;51.730;11.110;2023-08-24T01:47:51;18.90;99.90
33739;DHT22;20063;51.730;11.110;2023-08-24T01:50:18;18.90;99.90
33739;DHT22;20063;51.730;11.110;2023-08-24T01:52:47;18.90;99.90
33739;DHT22;20063;51.730;11.110;2023-08-24T01:55:13;18.90;99.90
33739;DHT22;20063;51.730;11.110;2023-08-24T01:57:40;18.90;99.90
33739;DHT22;20063;51.730;11.110;2023-08-24T02:00:07;19.00;99.90
33739;DHT22;20063;51.730;11.110;2023-08-24T02:02:36;19.00;99.90
33739;DHT22;20063;51.730;11.110;2023-08-24T02:05:05;19.00;99.90
33739;DHT22;20063;51.730;11.110;2023-08-24T02:07:31;19.00;99.90
33739;DHT22;20063;51.730;11.110;2023-08-24T02:09:56;19.00;99.90
33739;DHT22;20063;51.730;11.110;2023-08-24T02:12:22;19.00;99.90
33739;DHT22;20063;51.730;11.110;2023-08-24T02:14:48;18.90;99.90
33739;DHT22;20063;51.730;11.110;2023-08-24T02:17:13;19.00;99.90
33739;DHT22;20063;51.730;11.110;2023-08-24T02:19:39;19.00;99.90
33739;DHT22;20063;51.730;11.110;2023-08-24T02:22:07;19.00;99.90
33739;DHT22;20063;51.730;11.110;2023-08-24T02:24:33;19.00;99.90
33739;DHT22;20063;51.730;11.110;2023-08-24T02:26:59;19.00;99.90
33739;DHT22;20063;51.730;11.110;2023-08-24T02:29:25;19.00;99.90
33739;DHT22;20063;51.730;11.110;2023-08-24T02:31:51;19.00;99.90
33739;DHT22;20063;51.730;11.110;2023-08-24T02:34:17;19.00;99.90
33739;DHT22;20063;51.730;11.110;2023-08-24T02:36:43;18.90;99.90
33739;DHT22;20063;51.730;11.110;2023-08-24T02:39:08;19.00;99.90
33739;DHT22;20063;51.730;11.110;2023-08-24T02:41:34;19.00;99.90
33739;DHT22;20063;51.730;11.110;2023-08-24T02:44:00;19.00;99.90
33739;DHT22;20063;51.730;11.110;2023-08-24T02:46:29;19.00;99.90
33739;DHT22;20063;51.730;11.110;2023-08-24T02:48:55;19.00;99.90
33739;DHT22;20063;51.730;11.110;2023-08-24T02:51:24;18.90;99.90
33739;DHT22;20063;51.730;11.110;2023-08-24T02:53:50;18.90;99.90
33739;DHT22;20063;51.730;11.110;2023-08-24T02:56:16;18.80;99.90
33739;DHT22;20063;51.730;11.110;2023-08-24T02:58:41;18.80;99.90
33739;DHT22;20063;51.730;11.110;2023-08-24T03:01:07;18.80;99.90
33739;DHT22;20063;51.730;11.110;2023-08-24T03:03:34;18.80;99.90
33739;DHT22;20063;51.730;11.110;2023-08-24T03:06:02;18.90;99.90
33739;DHT22;20063;51.730;11.110;2023-08-24T03:08:34;18.80;99.90
33739;DHT22;20063;51.730;11.110;2023-08-24T03:11:01;18.80;99.90
33739;DHT22;20063;51.730;11.110;2023-08-24T03:13:29;18.80;99.90
33739;DHT22;20063;51.730;11.110;2023-08-24T03:15:56;18.70;99.90
33739;DHT22;20063;51.730;11.110;2023-08-24T03:18:22;18.70;99.90
33739;DHT22;20063;51.730;11.110;2023-08-24T03:20:48;18.60;99.90
33739;DHT22;20063;51.730;11.110;2023-08-24T03:23:15;18.50;99.90
33739;DHT22;20063;51.730;11.110;2023-08-24T03:25:41;18.50;99.90
33739;DHT22;20063;51.730;11.110;2023-08-24T03:28:08;18.40;99.90
33739;DHT22;20063;51.730;11.110;2023-08-24T03:30:35;18.30;99.90
33739;DHT22;20063;51.730;11.110;2023-08-24T03:33:07;18.30;99.90
33739;DHT22;20063;51.730;11.110;2023-08-24T03:35:33;18.20;99.90
33739;DHT22;20063;51.730;11.110;2023-08-24T03:37:59;18.10;99.90
33739;DHT22;20063;51.730;11.110;2023-08-24T03:40:25;18.00;99.90
33739;DHT22;20063;51.730;11.110;2023-08-24T03:42:52;17.90;99.90
33739;DHT22;20063;51.730;11.110;2023-08-24T03:45:19;17.80;99.90
33739;DHT22;20063;51.730;11.110;2023-08-24T03:47:45;17.80;99.90
33739;DHT22;20063;51.730;11.110;2023-08-24T03:50:10;17.80;99.90
33739;DHT22;20063;51.730;11.110;2023-08-24T03:52:36;17.70;99.90
33739;DHT22;20063;51.730;11.110;2023-08-24T03:55:06;17.70;99.90
33739;DHT22;20063;51.730;11.110;2023-08-24T03:57:32;17.70;99.90
33739;DHT22;20063;51.730;11.110;2023-08-24T03:59:58;17.60;99.90
33739;DHT22;20063;51.730;11.110;2023-08-24T04:02:23;17.60;99.90
33739;DHT22;20063;51.730;11.110;2023-08-24T04:04:50;17.50;99.90
33739;DHT22;20063;51.730;11.110;2023-08-24T04:07:16;17.60;99.90
33739;DHT22;20063;51.730;11.110;2023-08-24T04:09:42;17.70;99.90
33739;DHT22;20063;51.730;11.110;2023-08-24T04:12:08;17.80;99.90
33739;DHT22;20063;51.730;11.110;2023-08-24T04:14:34;17.80;99.90
33739;DHT22;20063;51.730;11.110;2023-08-24T04:17:00;17.90;99.90
33739;DHT22;20063;51.730;11.110;2023-08-24T04:19:25;18.10;99.90
33739;DHT22;20063;51.730;11.110;2023-08-24T04:21:54;18.30;99.90
33739;DHT22;20063;51.730;11.110;2023-08-24T04:24:20;18.40;99.90
33739;DHT22;20063;51.730;11.110;2023-08-24T04:26:45;18.50;99.90
33739;DHT22;20063;51.730;11.110;2023-08-24T04:29:11;18.60;99.90
33739;DHT22;20063;51.730;11.110;2023-08-24T04:31:37;18.70;99.90
33739;DHT22;20063;51.730;11.110;2023-08-24T04:34:06;18.70;99.90
33739;DHT22;20063;51.730;11.110;2023-08-24T04:36:36;18.80;99.90
33739;DHT22;20063;51.730;11.110;2023-08-24T04:39:02;18.90;99.90
33739;DHT22;20063;51.730;11.110;2023-08-24T04:41:30;19.00;99.90
33739;DHT22;20063;51.730;11.110;2023-08-24T04:43:56;19.00;99.90
33739;DHT22;20063;51.730;11.110;2023-08-24T04:46:22;19.00;99.90
33739;DHT22;20063;51.730;11.110;2023-08-24T04:48:47;19.10;99.90
33739;DHT22;20063;51.730;11.110;2023-08-24T04:51:13;19.10;99.90
33739;DHT22;20063;51.730;11.110;2023-08-24T04:53:38;19.20;99.90
33739;DHT22;20063;51.730;11.110;2023-08-24T04:56:04;19.20;99.90
33739;DHT22;20063;51.730;11.110;2023-08-24T04:58:30;19.20;99.90
33739;DHT22;20063;51.730;11.110;2023-08-24T05:00:55;19.20;99.90
33739;DHT22;20063;51.730;11.110;2023-08-24T05:03:21;19.30;99.90
33739;DHT22;20063;51.730;11.110;2023-08-24T05:05:47;19.30;99.90
33739;DHT22;20063;51.730;11.110;2023-08-24T05:08:13;19.30;99.90
33739;DHT22;20063;51.730;11.110;2023-08-24T05:10:38;19.30;99.90
33739;DHT22;20063;51.730;11.110;2023-08-24T05:13:07;19.40;99.90
33739;DHT22;20063;51.730;11.110;2023-08-24T05:15:33;19.30;99.90
33739;DHT22;20063;51.730;11.110;2023-08-24T05:17:58;19.40;99.90
33739;DHT22;20063;51.730;11.110;2023-08-24T05:20:25;19.40;99.90
33739;DHT22;20063;51.730;11.110;2023-08-24T05:22:54;19.50;99.90
33739;DHT22;20063;51.730;11.110;2023-08-24T05:25:21;19.40;99.90
33739;DHT22;20063;51.730;11.110;2023-08-24T05:27:47;19.40;99.90
33739;DHT22;20063;51.730;11.110;2023-08-24T05:30:12;19.40;99.90
33739;DHT22;20063;51.730;11.110;2023-08-24T05:32:38;19.50;99.90
33739;DHT22;20063;51.730;11.110;2023-08-24T05:35:08;19.50;99.90
33739;DHT22;20063;51.730;11.110;2023-08-24T05:37:34;19.50;99.90
33739;DHT22;20063;51.730;11.110;2023-08-24T05:40:00;19.50;99.90
33739;DHT22;20063;51.730;11.110;2023-08-24T05:42:26;19.50;99.90
33739;DHT22;20063;51.730;11.110;2023-08-24T05:44:52;19.50;99.90
33739;DHT22;20063;51.730;11.110;2023-08-24T05:47:18;19.60;99.90
33739;DHT22;20063;51.730;11.110;2023-08-24T05:49:43;19.60;99.90
33739;DHT22;20063;51.730;11.110;2023-08-24T05:52:09;19.70;99.90
33739;DHT22;20063;51.730;11.110;2023-08-24T05:54:36;19.60;99.90
33739;DHT22;20063;51.730;11.110;2023-08-24T05:57:02;19.70;99.90
33739;DHT22;20063;51.730;11.110;2023-08-24T05:59:29;19.70;99.90
33739;DHT22;20063;51.730;11.110;2023-08-24T06:01:55;19.70;99.90
33739;DHT22;20063;51.730;11.110;2023-08-24T06:04:20;19.70;99.90
33739;DHT22;20063;51.730;11.110;2023-08-24T06:06:46;19.70;99.90
33739;DHT22;20063;51.730;11.110;2023-08-24T06:09:12;19.70;99.90
33739;DHT22;20063;51.730;11.110;2023-08-24T06:11:37;19.70;99.90
33739;DHT22;20063;51.730;11.110;2023-08-24T06:14:04;19.70;99.90
33739;DHT22;20063;51.730;11.110;2023-08-24T06:16:30;19.70;99.90
33739;DHT22;20063;51.730;11.110;2023-08-24T06:18:56;19.60;99.90
33739;DHT22;20063;51.730;11.110;2023-08-24T06:21:24;19.60;99.90
33739;DHT22;20063;51.730;11.110;2023-08-24T06:23:50;19.60;99.90
33739;DHT22;20063;51.730;11.110;2023-08-24T06:26:17;19.60;99.90
33739;DHT22;20063;51.730;11.110;2023-08-24T06:28:43;19.60;99.90
33739;DHT22;20063;51.730;11.110;2023-08-24T06:31:08;19.70;99.90
33739;DHT22;20063;51.730;11.110;2023-08-24T06:33:34;19.70;99.90
33739;DHT22;20063;51.730;11.110;2023-08-24T06:36:01;19.60;99.90
33739;DHT22;20063;51.730;11.110;2023-08-24T06:38:29;19.60;99.90
33739;DHT22;20063;51.730;11.110;2023-08-24T06:40:54;19.70;99.90
33739;DHT22;20063;51.730;11.110;2023-08-24T06:43:20;19.70;99.90
33739;DHT22;20063;51.730;11.110;2023-08-24T06:45:46;19.70;99.90
33739;DHT22;20063;51.730;11.110;2023-08-24T06:48:11;19.80;99.90
33739;DHT22;20063;51.730;11.110;2023-08-24T06:50:37;19.80;99.90
33739;DHT22;20063;51.730;11.110;2023-08-24T06:53:03;19.90;99.90
33739;DHT22;20063;51.730;11.110;2023-08-24T06:55:29;20.00;99.90
33739;DHT22;20063;51.730;11.110;2023-08-24T06:57:55;20.00;99.90
33739;DHT22;20063;51.730;11.110;2023-08-24T07:00:21;20.10;99.90
33739;DHT22;20063;51.730;11.110;2023-08-24T07:02:47;20.10;99.90
33739;DHT22;20063;51.730;11.110;2023-08-24T07:05:13;20.10;99.90
33739;DHT22;20063;51.730;11.110;2023-08-24T07:07:40;20.20;99.90
33739;DHT22;20063;51.730;11.110;2023-08-24T07:10:10;20.20;99.90
33739;DHT22;20063;51.730;11.110;2023-08-24T07:12:35;20.20;99.90
33739;DHT22;20063;51.730;11.110;2023-08-24T07:15:01;20.20;99.90
33739;DHT22;20063;51.730;11.110;2023-08-24T07:17:27;20.20;99.90
33739;DHT22;20063;51.730;11.110;2023-08-24T07:19:53;20.20;99.90
33739;DHT22;20063;51.730;11.110;2023-08-24T07:22:19;20.30;99.90
33739;DHT22;20063;51.730;11.110;2023-08-24T07:24:45;20.30;99.90
33739;DHT22;20063;51.730;11.110;2023-08-24T07:27:11;20.20;99.90
33739;DHT22;20063;51.730;11.110;2023-08-24T07:29:37;20.20;99.90
33739;DHT22;20063;51.730;11.110;2023-08-24T07:32:02;20.20;99.90
33739;DHT22;20063;51.730;11.110;2023-08-24T07:34:28;20.20;99.90
33739;DHT22;20063;51.730;11.110;2023-08-24T07:36:54;20.20;99.90
33739;DHT22;20063;51.730;11.110;2023-08-24T07:39:20;20.20;99.90
33739;DHT22;20063;51.730;11.110;2023-08-24T07:41:46;20.20;99.90
33739;DHT22;20063;51.730;11.110;2023-08-24T07:44:12;20.20;99.90
33739;DHT22;20063;51.730;11.110;2023-08-24T07:46:41;20.20;99.90
33739;DHT22;20063;51.730;11.110;2023-08-24T07:49:06;20.20;99.90
33739;DHT22;20063;51.730;11.110;2023-08-24T07:51:36;20.20;99.90
33739;DHT22;20063;51.730;11.110;2023-08-24T07:54:17;20.20;99.90
33739;DHT22;20063;51.730;11.110;2023-08-24T07:56:42;20.30;99.90
33739;DHT22;20063;51.730;11.110;2023-08-24T07:59:20;20.30;99.90
33739;DHT22;20063;51.730;11.110;2023-08-24T08:01:46;20.30;99.90
33739;DHT22;20063;51.730;11.110;2023-08-24T08:04:11;20.30;99.90
33739;DHT22;20063;51.730;11.110;2023-08-24T08:06:37;20.30;99.90
33739;DHT22;20063;51.730;11.110;2023-08-24T08:09:02;20.30;99.90
33739;DHT22;20063;51.730;11.110;2023-08-24T08:11:28;20.30;99.90
33739;DHT22;20063;51.730;11.110;2023-08-24T08:13:54;20.30;99.90
33739;DHT22;20063;51.730;11.110;2023-08-24T08:16:19;20.30;99.90
33739;DHT22;20063;51.730;11.110;2023-08-24T08:18:45;20.40;99.90
33739;DHT22;20063;51.730;11.110;2023-08-24T08:21:17;20.40;99.90
33739;DHT22;20063;51.730;11.110;2023-08-24T08:23:43;20.40;99.90
33739;DHT22;20063;51.730;11.110;2023-08-24T08:26:12;20.40;99.90
33739;DHT22;20063;51.730;11.110;2023-08-24T08:28:39;20.50;99.90
33739;DHT22;20063;51.730;11.110;2023-08-24T08:31:05;20.50;99.90
33739;DHT22;20063;51.730;11.110;2023-08-24T08:33:31;20.50;99.90
33739;DHT22;20063;51.730;11.110;2023-08-24T08:35:57;20.60;99.90
33739;DHT22;20063;51.730;11.110;2023-08-24T08:38:22;20.60;99.90
33739;DHT22;20063;51.730;11.110;2023-08-24T08:40:53;20.60;99.90
33739;DHT22;20063;51.730;11.110;2023-08-24T08:43:22;20.60;99.90
33739;DHT22;20063;51.730;11.110;2023-08-24T08:45:49;20.60;99.90
33739;DHT22;20063;51.730;11.110;2023-08-24T08:48:18;20.60;99.90
33739;DHT22;20063;51.730;11.110;2023-08-24T08:50:50;20.70;99.90
33739;DHT22;20063;51.730;11.110;2023-08-24T08:53:20;20.70;99.90
33739;DHT22;20063;51.730;11.110;2023-08-24T08:55:47;20.70;99.90
33739;DHT22;20063;51.730;11.110;2023-08-24T08:58:13;20.80;99.90
33739;DHT22;20063;51.730;11.110;2023-08-24T09:00:39;20.80;99.90
33739;DHT22;20063;51.730;11.110;2023-08-24T09:03:06;20.90;99.90
33739;DHT22;20063;51.730;11.110;2023-08-24T09:05:32;20.90;99.90
33739;DHT22;20063;51.730;11.110;2023-08-24T09:07:58;21.00;99.90
33739;DHT22;20063;51.730;11.110;2023-08-24T09:10:25;21.10;99.90
33739;DHT22;20063;51.730;11.110;2023-08-24T09:12:50;21.20;99.90
33739;DHT22;20063;51.730;11.110;2023-08-24T09:15:24;21.30;99.90
33739;DHT22;20063;51.730;11.110;2023-08-24T09:17:55;21.40;99.90
33739;DHT22;20063;51.730;11.110;2023-08-24T09:20:21;21.50;99.90
33739;DHT22;20063;51.730;11.110;2023-08-24T09:22:47;21.70;99.90
33739;DHT22;20063;51.730;11.110;2023-08-24T09:25:13;21.80;99.90
33739;DHT22;20063;51.730;11.110;2023-08-24T09:27:38;21.80;99.90
33739;DHT22;20063;51.730;11.110;2023-08-24T09:30:04;21.90;99.90
33739;DHT22;20063;51.730;11.110;2023-08-24T09:32:33;21.90;99.90
33739;DHT22;20063;51.730;11.110;2023-08-24T09:35:05;21.90;99.90
33739;DHT22;20063;51.730;11.110;2023-08-24T09:37:34;21.90;99.90
33739;DHT22;20063;51.730;11.110;2023-08-24T09:40:07;22.00;99.90
33739;DHT22;20063;51.730;11.110;2023-08-24T09:42:40;21.90;99.90
33739;DHT22;20063;51.730;11.110;2023-08-24T09:45:08;22.00;99.90
33739;DHT22;20063;51.730;11.110;2023-08-24T09:47:36;22.00;99.90
33739;DHT22;20063;51.730;11.110;2023-08-24T09:50:02;22.00;99.90
33739;DHT22;20063;51.730;11.110;2023-08-24T09:52:32;22.00;99.90
33739;DHT22;20063;51.730;11.110;2023-08-24T09:55:04;22.20;99.90
33739;DHT22;20063;51.730;11.110;2023-08-24T09:57:36;22.20;99.90
33739;DHT22;20063;51.730;11.110;2023-08-24T10:00:05;22.30;99.90
33739;DHT22;20063;51.730;11.110;2023-08-24T10:02:37;22.30;99.90
33739;DHT22;20063;51.730;11.110;2023-08-24T10:05:07;22.30;99.90
33739;DHT22;20063;51.730;11.110;2023-08-24T10:07:34;22.40;99.90
33739;DHT22;20063;51.730;11.110;2023-08-24T10:10:04;22.40;99.90
33739;DHT22;20063;51.730;11.110;2023-08-24T10:12:38;22.40;99.90
33739;DHT22;20063;51.730;11.110;2023-08-24T10:15:07;22.50;99.90
33739;DHT22;20063;51.730;11.110;2023-08-24T10:17:34;22.50;99.90
33739;DHT22;20063;51.730;11.110;2023-08-24T10:20:02;22.50;99.90
33739;DHT22;20063;51.730;11.110;2023-08-24T10:22:32;22.50;99.90
33739;DHT22;20063;51.730;11.110;2023-08-24T10:24:59;22.50;99.90
33739;DHT22;20063;51.730;11.110;2023-08-24T10:27:27;22.50;99.90
33739;DHT22;20063;51.730;11.110;2023-08-24T10:29:53;22.60;99.90
33739;DHT22;20063;51.730;11.110;2023-08-24T10:32:22;22.70;99.90
33739;DHT22;20063;51.730;11.110;2023-08-24T10:34:49;22.70;99.90
33739;DHT22;20063;51.730;11.110;2023-08-24T10:37:15;22.80;99.90
33739;DHT22;20063;51.730;11.110;2023-08-24T10:39:45;22.80;99.90
33739;DHT22;20063;51.730;11.110;2023-08-24T10:42:13;22.90;99.90
33739;DHT22;20063;51.730;11.110;2023-08-24T10:44:39;22.90;99.90
33739;DHT22;20063;51.730;11.110;2023-08-24T10:47:13;22.90;99.90
33739;DHT22;20063;51.730;11.110;2023-08-24T10:49:41;22.90;99.90
33739;DHT22;20063;51.730;11.110;2023-08-24T10:52:23;22.90;99.90
33739;DHT22;20063;51.730;11.110;2023-08-24T10:54:50;22.90;99.90
33739;DHT22;20063;51.730;11.110;2023-08-24T10:57:21;23.00;99.90
33739;DHT22;20063;51.730;11.110;2023-08-24T11:00:08;23.10;99.90
33739;DHT22;20063;51.730;11.110;2023-08-24T11:02:45;23.10;99.90
33739;DHT22;20063;51.730;11.110;2023-08-24T11:10:16;23.20;99.90
33739;DHT22;20063;51.730;11.110;2023-08-24T11:13:04;23.20;99.90
33739;DHT22;20063;51.730;11.110;2023-08-24T11:15:49;23.20;99.90
33739;DHT22;20063;51.730;11.110;2023-08-24T11:18:23;23.20;99.90
33739;DHT22;20063;51.730;11.110;2023-08-24T11:21:00;23.30;99.90
33739;DHT22;20063;51.730;11.110;2023-08-24T11:23:26;23.30;99.90
33739;DHT22;20063;51.730;11.110;2023-08-24T11:25:53;23.30;99.90
33739;DHT22;20063;51.730;11.110;2023-08-24T11:28:23;23.40;99.90
33739;DHT22;20063;51.730;11.110;2023-08-24T11:30:50;23.50;99.90
33739;DHT22;20063;51.730;11.110;2023-08-24T11:33:32;23.60;99.90
33739;DHT22;20063;51.730;11.110;2023-08-24T11:36:00;23.60;99.90
33739;DHT22;20063;51.730;11.110;2023-08-24T11:38:39;23.70;99.90
33739;DHT22;20063;51.730;11.110;2023-08-24T11:41:15;23.70;99.90
33739;DHT22;20063;51.730;11.110;2023-08-24T11:43:43;23.80;99.90
33739;DHT22;20063;51.730;11.110;2023-08-24T11:46:08;23.80;99.90
33739;DHT22;20063;51.730;11.110;2023-08-24T11:48:34;23.80;99.90
33739;DHT22;20063;51.730;11.110;2023-08-24T11:51:02;23.90;99.90
33739;DHT22;20063;51.730;11.110;2023-08-24T11:53:29;23.90;99.90
33739;DHT22;20063;51.730;11.110;2023-08-24T11:55:57;24.00;99.90
33739;DHT22;20063;51.730;11.110;2023-08-24T11:58:23;24.00;99.90
33739;DHT22;20063;51.730;11.110;2023-08-24T12:00:48;24.00;99.90
33739;DHT22;20063;51.730;11.110;2023-08-24T12:03:14;24.00;99.90
33739;DHT22;20063;51.730;11.110;2023-08-24T12:05:40;24.00;99.90
33739;DHT22;20063;51.730;11.110;2023-08-24T12:08:06;24.10;99.90
33739;DHT22;20063;51.730;11.110;2023-08-24T12:10:34;24.10;99.90
33739;DHT22;20063;51.730;11.110;2023-08-24T12:13:05;24.10;99.90
33739;DHT22;20063;51.730;11.110;2023-08-24T12:15:34;24.10;99.90
33739;DHT22;20063;51.730;11.110;2023-08-24T12:18:10;24.10;99.90
33739;DHT22;20063;51.730;11.110;2023-08-24T12:20:36;24.20;99.90
33739;DHT22;20063;51.730;11.110;2023-08-24T12:23:02;24.20;99.90
33739;DHT22;20063;51.730;11.110;2023-08-24T12:25:28;24.30;99.90
33739;DHT22;20063;51.730;11.110;2023-08-24T12:28:14;24.40;99.90
33739;DHT22;20063;51.730;11.110;2023-08-24T12:33:30;24.50;99.90
33739;DHT22;20063;51.730;11.110;2023-08-24T12:35:59;24.50;99.90
33739;DHT22;20063;51.730;11.110;2023-08-24T12:38:26;24.50;99.90
33739;DHT22;20063;51.730;11.110;2023-08-24T12:40:53;24.60;99.90
33739;DHT22;20063;51.730;11.110;2023-08-24T12:43:19;24.60;99.90
33739;DHT22;20063;51.730;11.110;2023-08-24T12:45:44;24.60;99.90
33739;DHT22;20063;51.730;11.110;2023-08-24T12:48:11;24.70;99.90
33739;DHT22;20063;51.730;11.110;2023-08-24T12:50:38;24.80;99.90
33739;DHT22;20063;51.730;11.110;2023-08-24T12:53:05;24.80;99.90
33739;DHT22;20063;51.730;11.110;2023-08-24T12:55:37;24.90;99.90
33739;DHT22;20063;51.730;11.110;2023-08-24T12:58:04;24.90;99.90
33739;DHT22;20063;51.730;11.110;2023-08-24T13:00:30;24.90;99.90
33739;DHT22;20063;51.730;11.110;2023-08-24T13:02:56;25.00;99.90
33739;DHT22;20063;51.730;11.110;2023-08-24T13:05:21;25.00;99.90
33739;DHT22;20063;51.730;11.110;2023-08-24T13:07:47;25.10;99.90
33739;DHT22;20063;51.730;11.110;2023-08-24T13:10:13;25.10;99.90
33739;DHT22;20063;51.730;11.110;2023-08-24T13:12:39;25.10;99.90
33739;DHT22;20063;51.730;11.110;2023-08-24T13:15:06;25.10;99.90
33739;DHT22;20063;51.730;11.110;2023-08-24T13:17:32;25.20;99.90
33739;DHT22;20063;51.730;11.110;2023-08-24T13:19:57;25.20;99.90
33739;DHT22;20063;51.730;11.110;2023-08-24T13:22:23;25.30;99.90
33739;DHT22;20063;51.730;11.110;2023-08-24T13:24:52;25.30;99.90
33739;DHT22;20063;51.730;11.110;2023-08-24T13:27:17;25.30;99.90
33739;DHT22;20063;51.730;11.110;2023-08-24T13:29:43;25.30;99.90
33739;DHT22;20063;51.730;11.110;2023-08-24T13:32:09;25.30;99.90
33739;DHT22;20063;51.730;11.110;2023-08-24T13:34:36;25.30;99.90
33739;DHT22;20063;51.730;11.110;2023-08-24T13:37:02;25.40;99.90
33739;DHT22;20063;51.730;11.110;2023-08-24T13:39:28;25.40;99.90
33739;DHT22;20063;51.730;11.110;2023-08-24T13:41:58;25.60;99.90
33739;DHT22;20063;51.730;11.110;2023-08-24T13:44:24;25.60;99.90
33739;DHT22;20063;51.730;11.110;2023-08-24T13:46:50;25.70;99.90
33739;DHT22;20063;51.730;11.110;2023-08-24T13:49:18;25.90;99.90
33739;DHT22;20063;51.730;11.110;2023-08-24T13:51:44;26.20;99.90
33739;DHT22;20063;51.730;11.110;2023-08-24T13:54:17;26.30;99.90
33739;DHT22;20063;51.730;11.110;2023-08-24T13:56:44;26.50;99.90
33739;DHT22;20063;51.730;11.110;2023-08-24T13:59:10;26.50;99.90
33739;DHT22;20063;51.730;11.110;2023-08-24T14:01:36;26.50;99.90
33739;DHT22;20063;51.730;11.110;2023-08-24T14:04:03;26.50;99.90
33739;DHT22;20063;51.730;11.110;2023-08-24T14:06:33;26.40;99.90
33739;DHT22;20063;51.730;11.110;2023-08-24T14:09:06;26.50;99.90
33739;DHT22;20063;51.730;11.110;2023-08-24T14:11:32;26.50;99.90
33739;DHT22;20063;51.730;11.110;2023-08-24T14:13:58;26.60;99.90
33739;DHT22;20063;51.730;11.110;2023-08-24T14:16:24;26.50;99.90
33739;DHT22;20063;51.730;11.110;2023-08-24T14:18:50;26.40;99.90
33739;DHT22;20063;51.730;11.110;2023-08-24T14:21:16;26.40;99.90
33739;DHT22;20063;51.730;11.110;2023-08-24T14:23:42;26.50;99.90
33739;DHT22;20063;51.730;11.110;2023-08-24T14:26:07;26.50;99.90
33739;DHT22;20063;51.730;11.110;2023-08-24T14:28:48;26.40;99.90
33739;DHT22;20063;51.730;11.110;2023-08-24T14:31:24;26.40;99.90
33739;DHT22;20063;51.730;11.110;2023-08-24T14:33:51;26.40;99.90
33739;DHT22;20063;51.730;11.110;2023-08-24T14:36:18;26.40;99.90
33739;DHT22;20063;51.730;11.110;2023-08-24T14:38:43;26.40;99.90
33739;DHT22;20063;51.730;11.110;2023-08-24T14:41:11;26.30;99.90
33739;DHT22;20063;51.730;11.110;2023-08-24T14:43:38;26.20;99.90
33739;DHT22;20063;51.730;11.110;2023-08-24T14:46:04;26.20;99.90
33739;DHT22;20063;51.730;11.110;2023-08-24T14:48:30;26.30;99.90
33739;DHT22;20063;51.730;11.110;2023-08-24T14:50:56;26.20;99.90
33739;DHT22;20063;51.730;11.110;2023-08-24T14:53:26;26.20;99.90
33739;DHT22;20063;51.730;11.110;2023-08-24T14:55:55;26.10;99.90
33739;DHT22;20063;51.730;11.110;2023-08-24T14:58:21;26.20;99.90
33739;DHT22;20063;51.730;11.110;2023-08-24T15:00:48;26.20;99.90
33739;DHT22;20063;51.730;11.110;2023-08-24T15:03:15;26.10;99.90
33739;DHT22;20063;51.730;11.110;2023-08-24T15:05:44;26.10;99.90
33739;DHT22;20063;51.730;11.110;2023-08-24T15:08:10;26.10;99.90
33739;DHT22;20063;51.730;11.110;2023-08-24T15:10:37;26.00;99.90
33739;DHT22;20063;51.730;11.110;2023-08-24T15:13:05;26.00;99.90
33739;DHT22;20063;51.730;11.110;2023-08-24T15:15:35;25.90;99.90
33739;DHT22;20063;51.730;11.110;2023-08-24T15:18:02;25.80;99.90
33739;DHT22;20063;51.730;11.110;2023-08-24T15:20:28;25.80;99.90
33739;DHT22;20063;51.730;11.110;2023-08-24T15:22:58;25.70;99.90
33739;DHT22;20063;51.730;11.110;2023-08-24T15:25:24;25.70;99.90
33739;DHT22;20063;51.730;11.110;2023-08-24T15:27:50;25.80;99.90
33739;DHT22;20063;51.730;11.110;2023-08-24T15:30:15;25.80;99.90